sensor_id;sensor_type;location;lat;lon;timestamp;P1;durP1;ratioP1;P2;durP2;ratioP2
80625;SDS011;69982;51.758;5.784;2023-09-30T00:00:59;11.90;;;3.70;;
80625;SDS011;69982;51.758;5.784;2023-09-30T00:03:31;11.80;;;3.30;;
80625;SDS011;69982;51.758;5.784;2023-09-30T00:05:59;10.90;;;3.40;;
80625;SDS011;69982;51.758;5.784;2023-09-30T00:08:26;11.60;;;3.20;;
80625;SDS011;69982;51.758;5.784;2023-09-30T00:10:55;14.90;;;3.70;;
80625;SDS011;69982;51.758;5.784;2023-09-30T00:13:22;13.80;;;4.10;;
80625;SDS011;69982;51.758;5.784;2023-09-30T00:15:51;14.00;;;4.20;;
80625;SDS011;69982;51.758;5.784;2023-09-30T00:18:19;14.20;;;4.20;;
80625;SDS011;69982;51.758;5.784;2023-09-30T00:20:47;11.30;;;3.90;;
80625;SDS011;69982;51.758;5.784;2023-09-30T00:23:15;10.20;;;3.30;;
80625;SDS011;69982;51.758;5.784;2023-09-30T00:25:43;14.40;;;3.70;;
80625;SDS011;69982;51.758;5.784;2023-09-30T00:28:11;15.20;;;3.60;;
80625;SDS011;69982;51.758;5.784;2023-09-30T00:30:39;9.70;;;3.40;;
80625;SDS011;69982;51.758;5.784;2023-09-30T00:33:07;11.60;;;3.80;;
80625;SDS011;69982;51.758;5.784;2023-09-30T00:35:35;14.20;;;3.50;;
80625;SDS011;69982;51.758;5.784;2023-09-30T00:38:04;12.30;;;3.50;;
80625;SDS011;69982;51.758;5.784;2023-09-30T00:40:32;11.60;;;3.70;;
80625;SDS011;69982;51.758;5.784;2023-09-30T00:42:59;12.10;;;4.20;;
80625;SDS011;69982;51.758;5.784;2023-09-30T00:45:28;13.20;;;4.00;;
80625;SDS011;69982;51.758;5.784;2023-09-30T00:47:56;12.40;;;3.50;;
80625;SDS011;69982;51.758;5.784;2023-09-30T00:50:24;15.40;;;4.10;;
80625;SDS011;69982;51.758;5.784;2023-09-30T00:52:52;10.50;;;4.00;;
80625;SDS011;69982;51.758;5.784;2023-09-30T00:55:20;12.20;;;3.80;;
80625;SDS011;69982;51.758;5.784;2023-09-30T00:57:49;14.10;;;4.40;;
80625;SDS011;69982;51.758;5.784;2023-09-30T01:02:45;18.50;;;3.80;;
80625;SDS011;69982;51.758;5.784;2023-09-30T01:05:13;12.80;;;3.70;;
80625;SDS011;69982;51.758;5.784;2023-09-30T01:07:40;11.50;;;3.90;;
80625;SDS011;69982;51.758;5.784;2023-09-30T01:10:08;13.50;;;4.20;;
80625;SDS011;69982;51.758;5.784;2023-09-30T01:12:36;14.00;;;4.30;;
80625;SDS011;69982;51.758;5.784;2023-09-30T01:15:04;13.10;;;4.50;;
80625;SDS011;69982;51.758;5.784;2023-09-30T01:17:34;12.40;;;4.30;;
80625;SDS011;69982;51.758;5.784;2023-09-30T01:20:02;12.40;;;4.60;;
80625;SDS011;69982;51.758;5.784;2023-09-30T01:22:33;14.50;;;4.30;;
80625;SDS011;69982;51.758;5.784;2023-09-30T01:25:01;10.80;;;4.60;;
80625;SDS011;69982;51.758;5.784;2023-09-30T01:27:29;15.80;;;4.70;;
80625;SDS011;69982;51.758;5.784;2023-09-30T01:29:57;17.70;;;4.90;;
80625;SDS011;69982;51.758;5.784;2023-09-30T01:32:25;10.90;;;4.80;;
80625;SDS011;69982;51.758;5.784;2023-09-30T01:34:53;11.10;;;4.80;;
80625;SDS011;69982;51.758;5.784;2023-09-30T01:37:21;12.10;;;5.10;;
80625;SDS011;69982;51.758;5.784;2023-09-30T01:39:49;14.30;;;4.50;;
80625;SDS011;69982;51.758;5.784;2023-09-30T01:42:17;9.50;;;4.50;;
80625;SDS011;69982;51.758;5.784;2023-09-30T01:44:45;12.10;;;4.60;;
80625;SDS011;69982;51.758;5.784;2023-09-30T01:47:13;13.50;;;5.00;;
80625;SDS011;69982;51.758;5.784;2023-09-30T01:49:40;13.80;;;4.80;;
80625;SDS011;69982;51.758;5.784;2023-09-30T01:52:08;11.70;;;4.70;;
80625;SDS011;69982;51.758;5.784;2023-09-30T01:54:36;12.20;;;4.60;;
80625;SDS011;69982;51.758;5.784;2023-09-30T01:57:04;12.40;;;5.20;;
80625;SDS011;69982;51.758;5.784;2023-09-30T01:59:31;14.30;;;5.20;;
80625;SDS011;69982;51.758;5.784;2023-09-30T02:01:59;14.50;;;5.10;;
80625;SDS011;69982;51.758;5.784;2023-09-30T02:04:27;13.30;;;5.30;;
80625;SDS011;69982;51.758;5.784;2023-09-30T02:06:54;13.10;;;5.30;;
80625;SDS011;69982;51.758;5.784;2023-09-30T02:09:22;10.90;;;5.20;;
80625;SDS011;69982;51.758;5.784;2023-09-30T02:11:50;9.90;;;5.00;;
80625;SDS011;69982;51.758;5.784;2023-09-30T02:14:17;11.70;;;4.70;;
80625;SDS011;69982;51.758;5.784;2023-09-30T02:16:45;13.00;;;4.80;;
80625;SDS011;69982;51.758;5.784;2023-09-30T02:19:13;12.60;;;4.90;;
80625;SDS011;69982;51.758;5.784;2023-09-30T02:21:41;12.20;;;5.30;;
80625;SDS011;69982;51.758;5.784;2023-09-30T02:24:08;11.30;;;5.20;;
80625;SDS011;69982;51.758;5.784;2023-09-30T02:26:37;12.30;;;5.10;;
80625;SDS011;69982;51.758;5.784;2023-09-30T02:29:06;12.20;;;5.10;;
80625;SDS011;69982;51.758;5.784;2023-09-30T02:31:35;15.90;;;5.70;;
80625;SDS011;69982;51.758;5.784;2023-09-30T02:34:03;13.40;;;5.60;;
80625;SDS011;69982;51.758;5.784;2023-09-30T02:36:30;14.10;;;5.40;;
80625;SDS011;69982;51.758;5.784;2023-09-30T02:38:58;12.10;;;5.30;;
80625;SDS011;69982;51.758;5.784;2023-09-30T02:41:28;13.90;;;6.00;;
80625;SDS011;69982;51.758;5.784;2023-09-30T02:43:56;11.30;;;5.50;;
80625;SDS011;69982;51.758;5.784;2023-09-30T02:46:24;16.30;;;6.10;;
80625;SDS011;69982;51.758;5.784;2023-09-30T02:48:55;12.50;;;5.90;;
80625;SDS011;69982;51.758;5.784;2023-09-30T02:51:23;14.10;;;6.50;;
80625;SDS011;69982;51.758;5.784;2023-09-30T02:53:51;11.50;;;5.50;;
80625;SDS011;69982;51.758;5.784;2023-09-30T02:56:18;14.20;;;6.30;;
80625;SDS011;69982;51.758;5.784;2023-09-30T02:58:46;15.50;;;6.40;;
80625;SDS011;69982;51.758;5.784;2023-09-30T03:01:14;16.60;;;6.20;;
80625;SDS011;69982;51.758;5.784;2023-09-30T03:03:45;13.70;;;5.90;;
80625;SDS011;69982;51.758;5.784;2023-09-30T03:06:13;13.00;;;5.50;;
80625;SDS011;69982;51.758;5.784;2023-09-30T03:08:42;11.30;;;5.40;;
80625;SDS011;69982;51.758;5.784;2023-09-30T03:11:09;12.70;;;6.10;;
80625;SDS011;69982;51.758;5.784;2023-09-30T03:13:37;10.50;;;5.70;;
80625;SDS011;69982;51.758;5.784;2023-09-30T03:16:05;13.80;;;6.00;;
80625;SDS011;69982;51.758;5.784;2023-09-30T03:18:33;11.80;;;6.10;;
80625;SDS011;69982;51.758;5.784;2023-09-30T03:21:01;17.00;;;6.30;;
80625;SDS011;69982;51.758;5.784;2023-09-30T03:23:36;13.30;;;6.10;;
80625;SDS011;69982;51.758;5.784;2023-09-30T03:26:07;15.50;;;6.40;;
80625;SDS011;69982;51.758;5.784;2023-09-30T03:28:38;13.50;;;5.90;;
80625;SDS011;69982;51.758;5.784;2023-09-30T03:31:07;12.80;;;5.90;;
80625;SDS011;69982;51.758;5.784;2023-09-30T03:33:36;12.30;;;6.10;;
80625;SDS011;69982;51.758;5.784;2023-09-30T03:36:03;15.80;;;6.40;;
80625;SDS011;69982;51.758;5.784;2023-09-30T03:38:31;15.40;;;6.30;;
80625;SDS011;69982;51.758;5.784;2023-09-30T03:40:59;13.80;;;6.60;;
80625;SDS011;69982;51.758;5.784;2023-09-30T03:45:55;16.70;;;7.10;;
80625;SDS011;69982;51.758;5.784;2023-09-30T03:48:25;15.40;;;6.60;;
80625;SDS011;69982;51.758;5.784;2023-09-30T03:50:54;15.70;;;6.90;;
80625;SDS011;69982;51.758;5.784;2023-09-30T03:53:21;14.10;;;5.70;;
80625;SDS011;69982;51.758;5.784;2023-09-30T03:55:53;14.00;;;6.20;;
80625;SDS011;69982;51.758;5.784;2023-09-30T03:58:21;16.80;;;5.90;;
80625;SDS011;69982;51.758;5.784;2023-09-30T04:00:49;15.10;;;6.00;;
80625;SDS011;69982;51.758;5.784;2023-09-30T04:03:19;19.10;;;6.00;;
80625;SDS011;69982;51.758;5.784;2023-09-30T04:05:48;15.00;;;6.70;;
80625;SDS011;69982;51.758;5.784;2023-09-30T04:08:17;13.40;;;6.00;;
80625;SDS011;69982;51.758;5.784;2023-09-30T04:10:45;14.30;;;6.10;;
80625;SDS011;69982;51.758;5.784;2023-09-30T04:13:13;12.90;;;6.60;;
80625;SDS011;69982;51.758;5.784;2023-09-30T04:15:41;13.70;;;7.20;;
80625;SDS011;69982;51.758;5.784;2023-09-30T04:18:09;11.90;;;6.00;;
80625;SDS011;69982;51.758;5.784;2023-09-30T04:20:37;15.20;;;6.00;;
80625;SDS011;69982;51.758;5.784;2023-09-30T04:23:07;12.10;;;6.20;;
80625;SDS011;69982;51.758;5.784;2023-09-30T04:25:37;11.80;;;6.10;;
80625;SDS011;69982;51.758;5.784;2023-09-30T04:28:04;12.10;;;5.30;;
80625;SDS011;69982;51.758;5.784;2023-09-30T04:30:33;13.70;;;5.70;;
80625;SDS011;69982;51.758;5.784;2023-09-30T04:33:01;14.60;;;6.30;;
80625;SDS011;69982;51.758;5.784;2023-09-30T04:35:28;12.20;;;5.30;;
80625;SDS011;69982;51.758;5.784;2023-09-30T04:37:57;11.70;;;5.60;;
80625;SDS011;69982;51.758;5.784;2023-09-30T04:40:28;13.50;;;6.10;;
80625;SDS011;69982;51.758;5.784;2023-09-30T04:42:56;11.00;;;5.60;;
80625;SDS011;69982;51.758;5.784;2023-09-30T04:45:27;13.90;;;6.00;;
80625;SDS011;69982;51.758;5.784;2023-09-30T04:47:55;13.30;;;5.70;;
80625;SDS011;69982;51.758;5.784;2023-09-30T04:50:25;10.70;;;5.00;;
80625;SDS011;69982;51.758;5.784;2023-09-30T04:52:53;17.00;;;5.60;;
80625;SDS011;69982;51.758;5.784;2023-09-30T04:55:21;13.30;;;5.70;;
80625;SDS011;69982;51.758;5.784;2023-09-30T04:57:49;10.70;;;5.30;;
80625;SDS011;69982;51.758;5.784;2023-09-30T05:00:20;11.90;;;5.80;;
80625;SDS011;69982;51.758;5.784;2023-09-30T05:02:52;11.90;;;5.60;;
80625;SDS011;69982;51.758;5.784;2023-09-30T05:05:20;14.40;;;6.40;;
80625;SDS011;69982;51.758;5.784;2023-09-30T05:07:47;16.70;;;6.00;;
80625;SDS011;69982;51.758;5.784;2023-09-30T05:10:15;11.80;;;6.10;;
80625;SDS011;69982;51.758;5.784;2023-09-30T05:12:43;13.40;;;5.70;;
80625;SDS011;69982;51.758;5.784;2023-09-30T05:15:15;14.30;;;5.50;;
80625;SDS011;69982;51.758;5.784;2023-09-30T05:17:44;16.00;;;5.90;;
80625;SDS011;69982;51.758;5.784;2023-09-30T05:20:13;14.40;;;6.40;;
80625;SDS011;69982;51.758;5.784;2023-09-30T05:22:41;11.70;;;5.30;;
80625;SDS011;69982;51.758;5.784;2023-09-30T05:25:13;13.60;;;6.10;;
80625;SDS011;69982;51.758;5.784;2023-09-30T05:27:45;13.20;;;5.70;;
80625;SDS011;69982;51.758;5.784;2023-09-30T05:30:15;13.70;;;5.70;;
80625;SDS011;69982;51.758;5.784;2023-09-30T05:32:44;15.30;;;6.60;;
80625;SDS011;69982;51.758;5.784;2023-09-30T05:35:14;12.90;;;5.80;;
80625;SDS011;69982;51.758;5.784;2023-09-30T05:37:44;15.50;;;6.40;;
80625;SDS011;69982;51.758;5.784;2023-09-30T05:40:15;13.20;;;6.50;;
80625;SDS011;69982;51.758;5.784;2023-09-30T05:42:58;14.90;;;6.50;;
80625;SDS011;69982;51.758;5.784;2023-09-30T05:45:27;15.60;;;6.10;;
80625;SDS011;69982;51.758;5.784;2023-09-30T05:47:58;13.70;;;6.30;;
80625;SDS011;69982;51.758;5.784;2023-09-30T05:50:29;13.40;;;6.00;;
80625;SDS011;69982;51.758;5.784;2023-09-30T05:52:59;11.60;;;6.20;;
80625;SDS011;69982;51.758;5.784;2023-09-30T05:55:26;13.50;;;6.20;;
80625;SDS011;69982;51.758;5.784;2023-09-30T05:57:55;14.90;;;6.40;;
80625;SDS011;69982;51.758;5.784;2023-09-30T06:02:59;11.90;;;5.80;;
80625;SDS011;69982;51.758;5.784;2023-09-30T06:05:27;11.10;;;6.00;;
80625;SDS011;69982;51.758;5.784;2023-09-30T06:08:00;14.20;;;6.50;;
80625;SDS011;69982;51.758;5.784;2023-09-30T06:10:32;13.50;;;6.30;;
80625;SDS011;69982;51.758;5.784;2023-09-30T06:13:00;14.40;;;5.80;;
80625;SDS011;69982;51.758;5.784;2023-09-30T06:15:27;18.00;;;6.70;;
80625;SDS011;69982;51.758;5.784;2023-09-30T06:17:56;13.80;;;6.40;;
80625;SDS011;69982;51.758;5.784;2023-09-30T06:20:25;16.00;;;6.60;;
80625;SDS011;69982;51.758;5.784;2023-09-30T06:22:55;14.00;;;6.60;;
80625;SDS011;69982;51.758;5.784;2023-09-30T06:25:23;13.30;;;6.60;;
80625;SDS011;69982;51.758;5.784;2023-09-30T06:27:51;17.60;;;7.20;;
80625;SDS011;69982;51.758;5.784;2023-09-30T06:30:19;15.30;;;7.00;;
80625;SDS011;69982;51.758;5.784;2023-09-30T06:32:48;17.50;;;8.20;;
80625;SDS011;69982;51.758;5.784;2023-09-30T06:35:16;16.20;;;6.90;;
80625;SDS011;69982;51.758;5.784;2023-09-30T06:37:44;18.90;;;7.20;;
80625;SDS011;69982;51.758;5.784;2023-09-30T06:40:15;17.10;;;6.70;;
80625;SDS011;69982;51.758;5.784;2023-09-30T06:42:43;16.00;;;6.40;;
80625;SDS011;69982;51.758;5.784;2023-09-30T06:45:11;16.90;;;7.30;;
80625;SDS011;69982;51.758;5.784;2023-09-30T06:47:40;17.10;;;7.40;;
80625;SDS011;69982;51.758;5.784;2023-09-30T06:50:09;15.80;;;6.90;;
80625;SDS011;69982;51.758;5.784;2023-09-30T06:52:40;15.10;;;6.20;;
80625;SDS011;69982;51.758;5.784;2023-09-30T06:55:09;18.30;;;7.00;;
80625;SDS011;69982;51.758;5.784;2023-09-30T06:57:37;15.80;;;6.60;;
80625;SDS011;69982;51.758;5.784;2023-09-30T07:00:08;14.90;;;6.30;;
80625;SDS011;69982;51.758;5.784;2023-09-30T07:02:39;19.50;;;6.30;;
80625;SDS011;69982;51.758;5.784;2023-09-30T07:05:11;15.90;;;6.40;;
80625;SDS011;69982;51.758;5.784;2023-09-30T07:07:40;17.20;;;6.80;;
80625;SDS011;69982;51.758;5.784;2023-09-30T07:10:11;18.00;;;6.80;;
80625;SDS011;69982;51.758;5.784;2023-09-30T07:12:39;17.00;;;6.00;;
80625;SDS011;69982;51.758;5.784;2023-09-30T07:15:07;22.20;;;7.10;;
80625;SDS011;69982;51.758;5.784;2023-09-30T07:17:36;16.30;;;6.90;;
80625;SDS011;69982;51.758;5.784;2023-09-30T07:20:04;20.10;;;6.80;;
80625;SDS011;69982;51.758;5.784;2023-09-30T07:22:33;22.00;;;7.60;;
80625;SDS011;69982;51.758;5.784;2023-09-30T07:25:06;13.70;;;6.50;;
80625;SDS011;69982;51.758;5.784;2023-09-30T07:27:36;18.50;;;6.10;;
80625;SDS011;69982;51.758;5.784;2023-09-30T07:30:04;19.80;;;6.40;;
80625;SDS011;69982;51.758;5.784;2023-09-30T07:32:34;19.50;;;7.00;;
80625;SDS011;69982;51.758;5.784;2023-09-30T07:35:02;20.20;;;7.30;;
80625;SDS011;69982;51.758;5.784;2023-09-30T07:39:58;17.90;;;6.40;;
80625;SDS011;69982;51.758;5.784;2023-09-30T07:42:25;14.40;;;6.60;;
80625;SDS011;69982;51.758;5.784;2023-09-30T07:44:53;14.30;;;6.40;;
80625;SDS011;69982;51.758;5.784;2023-09-30T07:49:49;17.10;;;6.40;;
80625;SDS011;69982;51.758;5.784;2023-09-30T07:52:17;18.90;;;6.60;;
80625;SDS011;69982;51.758;5.784;2023-09-30T07:54:45;23.60;;;6.90;;
80625;SDS011;69982;51.758;5.784;2023-09-30T07:57:12;17.90;;;6.50;;
80625;SDS011;69982;51.758;5.784;2023-09-30T07:59:40;18.70;;;5.80;;
80625;SDS011;69982;51.758;5.784;2023-09-30T08:02:08;17.30;;;5.90;;
80625;SDS011;69982;51.758;5.784;2023-09-30T08:04:36;13.60;;;5.40;;
80625;SDS011;69982;51.758;5.784;2023-09-30T08:07:04;14.40;;;5.80;;
80625;SDS011;69982;51.758;5.784;2023-09-30T08:09:32;15.30;;;6.30;;
80625;SDS011;69982;51.758;5.784;2023-09-30T08:11:59;14.70;;;6.10;;
80625;SDS011;69982;51.758;5.784;2023-09-30T08:16:55;15.80;;;6.50;;
80625;SDS011;69982;51.758;5.784;2023-09-30T08:21:51;14.20;;;6.30;;
80625;SDS011;69982;51.758;5.784;2023-09-30T08:26:47;21.40;;;7.00;;
80625;SDS011;69982;51.758;5.784;2023-09-30T08:29:15;10.70;;;5.00;;
80625;SDS011;69982;51.758;5.784;2023-09-30T08:31:42;17.20;;;6.70;;
80625;SDS011;69982;51.758;5.784;2023-09-30T08:34:10;14.90;;;5.90;;
80625;SDS011;69982;51.758;5.784;2023-09-30T08:36:37;18.80;;;7.00;;
80625;SDS011;69982;51.758;5.784;2023-09-30T08:39:05;20.30;;;6.50;;
80625;SDS011;69982;51.758;5.784;2023-09-30T08:41:34;16.70;;;5.60;;
80625;SDS011;69982;51.758;5.784;2023-09-30T08:44:03;16.00;;;5.90;;
80625;SDS011;69982;51.758;5.784;2023-09-30T08:46:32;14.70;;;6.20;;
80625;SDS011;69982;51.758;5.784;2023-09-30T08:49:01;13.90;;;5.70;;
80625;SDS011;69982;51.758;5.784;2023-09-30T08:51:31;15.70;;;5.90;;
80625;SDS011;69982;51.758;5.784;2023-09-30T08:54:00;18.10;;;6.30;;
80625;SDS011;69982;51.758;5.784;2023-09-30T08:56:31;18.50;;;6.70;;
80625;SDS011;69982;51.758;5.784;2023-09-30T08:59:02;15.30;;;6.00;;
80625;SDS011;69982;51.758;5.784;2023-09-30T09:01:30;14.80;;;6.60;;
80625;SDS011;69982;51.758;5.784;2023-09-30T09:03:58;16.70;;;6.10;;
80625;SDS011;69982;51.758;5.784;2023-09-30T09:06:26;18.90;;;6.30;;
80625;SDS011;69982;51.758;5.784;2023-09-30T09:08:54;19.80;;;6.80;;
80625;SDS011;69982;51.758;5.784;2023-09-30T09:11:40;15.10;;;6.30;;
80625;SDS011;69982;51.758;5.784;2023-09-30T09:14:08;15.90;;;6.20;;
80625;SDS011;69982;51.758;5.784;2023-09-30T09:16:36;20.50;;;7.50;;
80625;SDS011;69982;51.758;5.784;2023-09-30T09:19:13;20.70;;;7.00;;
80625;SDS011;69982;51.758;5.784;2023-09-30T09:21:56;19.50;;;7.20;;
80625;SDS011;69982;51.758;5.784;2023-09-30T09:24:29;17.40;;;7.20;;
80625;SDS011;69982;51.758;5.784;2023-09-30T09:27:18;17.80;;;5.20;;
80625;SDS011;69982;51.758;5.784;2023-09-30T09:29:47;20.60;;;6.90;;
80625;SDS011;69982;51.758;5.784;2023-09-30T09:32:15;15.90;;;5.60;;
80625;SDS011;69982;51.758;5.784;2023-09-30T09:34:44;19.10;;;5.60;;
80625;SDS011;69982;51.758;5.784;2023-09-30T09:37:27;16.60;;;5.80;;
80625;SDS011;69982;51.758;5.784;2023-09-30T09:39:55;13.50;;;5.50;;
80625;SDS011;69982;51.758;5.784;2023-09-30T09:42:28;16.30;;;4.60;;
80625;SDS011;69982;51.758;5.784;2023-09-30T09:44:59;19.80;;;5.10;;
80625;SDS011;69982;51.758;5.784;2023-09-30T09:47:31;13.80;;;5.10;;
80625;SDS011;69982;51.758;5.784;2023-09-30T09:50:01;15.00;;;5.90;;
80625;SDS011;69982;51.758;5.784;2023-09-30T09:52:31;13.60;;;4.50;;
80625;SDS011;69982;51.758;5.784;2023-09-30T09:55:01;14.60;;;4.60;;
80625;SDS011;69982;51.758;5.784;2023-09-30T09:57:38;14.80;;;4.90;;
80625;SDS011;69982;51.758;5.784;2023-09-30T10:00:07;13.80;;;4.70;;
80625;SDS011;69982;51.758;5.784;2023-09-30T10:02:41;15.60;;;4.30;;
80625;SDS011;69982;51.758;5.784;2023-09-30T10:05:10;14.80;;;4.40;;
80625;SDS011;69982;51.758;5.784;2023-09-30T10:07:40;11.50;;;4.20;;
80625;SDS011;69982;51.758;5.784;2023-09-30T10:10:29;13.50;;;5.10;;
80625;SDS011;69982;51.758;5.784;2023-09-30T10:13:03;12.30;;;3.90;;
80625;SDS011;69982;51.758;5.784;2023-09-30T10:20:31;13.00;;;4.40;;
80625;SDS011;69982;51.758;5.784;2023-09-30T10:23:20;12.90;;;4.20;;
80625;SDS011;69982;51.758;5.784;2023-09-30T10:25:50;13.00;;;3.90;;
80625;SDS011;69982;51.758;5.784;2023-09-30T10:28:34;15.10;;;3.50;;
80625;SDS011;69982;51.758;5.784;2023-09-30T10:31:11;10.80;;;3.60;;
80625;SDS011;69982;51.758;5.784;2023-09-30T10:34:17;14.60;;;4.00;;
80625;SDS011;69982;51.758;5.784;2023-09-30T10:36:47;11.00;;;3.50;;
80625;SDS011;69982;51.758;5.784;2023-09-30T10:39:17;11.20;;;3.40;;
80625;SDS011;69982;51.758;5.784;2023-09-30T10:51:10;9.80;;;2.60;;
80625;SDS011;69982;51.758;5.784;2023-09-30T10:53:45;11.00;;;2.20;;
80625;SDS011;69982;51.758;5.784;2023-09-30T10:56:15;8.50;;;2.60;;
80625;SDS011;69982;51.758;5.784;2023-09-30T10:58:43;11.00;;;2.40;;
80625;SDS011;69982;51.758;5.784;2023-09-30T11:01:20;8.80;;;2.90;;
80625;SDS011;69982;51.758;5.784;2023-09-30T11:03:50;11.30;;;2.80;;
80625;SDS011;69982;51.758;5.784;2023-09-30T11:06:27;9.90;;;3.00;;
80625;SDS011;69982;51.758;5.784;2023-09-30T11:08:56;10.30;;;2.80;;
80625;SDS011;69982;51.758;5.784;2023-09-30T11:12:12;10.00;;;2.30;;
80625;SDS011;69982;51.758;5.784;2023-09-30T11:14:24;13.90;;;3.40;;
80625;SDS011;69982;51.758;5.784;2023-09-30T11:16:58;11.80;;;3.00;;
80625;SDS011;69982;51.758;5.784;2023-09-30T11:19:45;9.30;;;3.10;;
80625;SDS011;69982;51.758;5.784;2023-09-30T11:22:15;13.10;;;2.80;;
80625;SDS011;69982;51.758;5.784;2023-09-30T11:24:43;10.90;;;2.50;;
80625;SDS011;69982;51.758;5.784;2023-09-30T11:27:10;7.10;;;2.10;;
80625;SDS011;69982;51.758;5.784;2023-09-30T11:29:48;10.90;;;2.90;;
80625;SDS011;69982;51.758;5.784;2023-09-30T11:32:27;9.00;;;3.00;;
80625;SDS011;69982;51.758;5.784;2023-09-30T11:34:57;10.50;;;2.50;;
80625;SDS011;69982;51.758;5.784;2023-09-30T11:40:11;8.50;;;1.90;;
80625;SDS011;69982;51.758;5.784;2023-09-30T11:42:41;10.10;;;1.80;;
80625;SDS011;69982;51.758;5.784;2023-09-30T11:45:21;12.50;;;2.20;;
80625;SDS011;69982;51.758;5.784;2023-09-30T11:47:52;11.60;;;2.80;;
80625;SDS011;69982;51.758;5.784;2023-09-30T11:50:20;13.80;;;2.20;;
80625;SDS011;69982;51.758;5.784;2023-09-30T11:52:48;10.40;;;2.20;;
80625;SDS011;69982;51.758;5.784;2023-09-30T11:55:15;13.30;;;2.70;;
80625;SDS011;69982;51.758;5.784;2023-09-30T11:57:44;11.80;;;2.60;;
80625;SDS011;69982;51.758;5.784;2023-09-30T12:00:11;11.70;;;2.40;;
80625;SDS011;69982;51.758;5.784;2023-09-30T12:02:41;7.80;;;2.00;;
80625;SDS011;69982;51.758;5.784;2023-09-30T12:05:09;7.70;;;2.30;;
80625;SDS011;69982;51.758;5.784;2023-09-30T12:07:38;9.70;;;2.20;;
80625;SDS011;69982;51.758;5.784;2023-09-30T12:10:09;11.70;;;2.00;;
80625;SDS011;69982;51.758;5.784;2023-09-30T12:12:37;8.80;;;2.10;;
80625;SDS011;69982;51.758;5.784;2023-09-30T12:15:07;9.50;;;2.40;;
80625;SDS011;69982;51.758;5.784;2023-09-30T12:17:37;11.00;;;2.30;;
80625;SDS011;69982;51.758;5.784;2023-09-30T12:20:06;8.30;;;2.20;;
80625;SDS011;69982;51.758;5.784;2023-09-30T12:22:36;7.10;;;1.70;;
80625;SDS011;69982;51.758;5.784;2023-09-30T12:25:04;7.00;;;1.90;;
80625;SDS011;69982;51.758;5.784;2023-09-30T12:27:34;9.00;;;2.30;;
80625;SDS011;69982;51.758;5.784;2023-09-30T12:30:02;10.40;;;2.20;;
80625;SDS011;69982;51.758;5.784;2023-09-30T12:32:31;8.10;;;2.40;;
80625;SDS011;69982;51.758;5.784;2023-09-30T12:34:59;9.40;;;1.90;;
80625;SDS011;69982;51.758;5.784;2023-09-30T12:37:28;8.80;;;2.00;;
80625;SDS011;69982;51.758;5.784;2023-09-30T12:39:56;6.90;;;2.10;;
80625;SDS011;69982;51.758;5.784;2023-09-30T12:42:24;7.10;;;2.00;;
80625;SDS011;69982;51.758;5.784;2023-09-30T12:44:52;10.50;;;2.10;;
80625;SDS011;69982;51.758;5.784;2023-09-30T12:47:19;6.30;;;1.90;;
80625;SDS011;69982;51.758;5.784;2023-09-30T12:52:15;6.90;;;2.10;;
80625;SDS011;69982;51.758;5.784;2023-09-30T12:54:43;9.00;;;2.50;;
80625;SDS011;69982;51.758;5.784;2023-09-30T12:59:40;7.30;;;1.90;;
80625;SDS011;69982;51.758;5.784;2023-09-30T13:02:08;7.50;;;1.90;;
80625;SDS011;69982;51.758;5.784;2023-09-30T13:04:37;10.00;;;2.30;;
80625;SDS011;69982;51.758;5.784;2023-09-30T13:07:13;9.80;;;2.30;;
80625;SDS011;69982;51.758;5.784;2023-09-30T13:09:41;8.50;;;2.20;;
80625;SDS011;69982;51.758;5.784;2023-09-30T13:12:09;11.20;;;2.70;;
80625;SDS011;69982;51.758;5.784;2023-09-30T13:14:38;8.70;;;1.70;;
80625;SDS011;69982;51.758;5.784;2023-09-30T13:17:06;6.80;;;1.70;;
80625;SDS011;69982;51.758;5.784;2023-09-30T13:19:34;6.50;;;1.80;;
80625;SDS011;69982;51.758;5.784;2023-09-30T13:22:02;9.00;;;2.20;;
80625;SDS011;69982;51.758;5.784;2023-09-30T13:24:30;10.20;;;2.50;;
80625;SDS011;69982;51.758;5.784;2023-09-30T13:29:25;11.60;;;3.00;;
80625;SDS011;69982;51.758;5.784;2023-09-30T13:31:53;9.30;;;2.30;;
80625;SDS011;69982;51.758;5.784;2023-09-30T13:34:20;9.00;;;1.90;;
80625;SDS011;69982;51.758;5.784;2023-09-30T13:36:48;10.30;;;2.20;;
80625;SDS011;69982;51.758;5.784;2023-09-30T13:39:16;7.50;;;2.20;;
80625;SDS011;69982;51.758;5.784;2023-09-30T13:41:45;7.60;;;1.90;;
80625;SDS011;69982;51.758;5.784;2023-09-30T13:44:14;7.50;;;2.00;;
80625;SDS011;69982;51.758;5.784;2023-09-30T13:46:42;7.30;;;1.70;;
80625;SDS011;69982;51.758;5.784;2023-09-30T13:49:11;9.30;;;2.10;;
80625;SDS011;69982;51.758;5.784;2023-09-30T13:51:39;9.50;;;1.60;;
80625;SDS011;69982;51.758;5.784;2023-09-30T13:56:35;7.40;;;1.60;;
80625;SDS011;69982;51.758;5.784;2023-09-30T13:59:03;8.30;;;2.20;;
80625;SDS011;69982;51.758;5.784;2023-09-30T14:01:30;9.80;;;2.40;;
80625;SDS011;69982;51.758;5.784;2023-09-30T14:06:26;8.30;;;1.90;;
80625;SDS011;69982;51.758;5.784;2023-09-30T14:08:54;7.00;;;1.90;;
80625;SDS011;69982;51.758;5.784;2023-09-30T14:11:22;8.00;;;1.60;;
80625;SDS011;69982;51.758;5.784;2023-09-30T14:16:18;8.90;;;1.90;;
80625;SDS011;69982;51.758;5.784;2023-09-30T14:18:46;9.00;;;2.40;;
80625;SDS011;69982;51.758;5.784;2023-09-30T14:21:15;9.00;;;2.10;;
80625;SDS011;69982;51.758;5.784;2023-09-30T14:23:42;9.50;;;2.00;;
80625;SDS011;69982;51.758;5.784;2023-09-30T14:26:11;11.90;;;2.10;;
80625;SDS011;69982;51.758;5.784;2023-09-30T14:28:38;7.90;;;2.20;;
80625;SDS011;69982;51.758;5.784;2023-09-30T14:31:06;8.00;;;2.20;;
80625;SDS011;69982;51.758;5.784;2023-09-30T14:33:35;8.60;;;2.10;;
80625;SDS011;69982;51.758;5.784;2023-09-30T14:38:33;9.70;;;2.00;;
80625;SDS011;69982;51.758;5.784;2023-09-30T14:41:01;8.60;;;2.00;;
80625;SDS011;69982;51.758;5.784;2023-09-30T14:43:28;7.20;;;1.90;;
80625;SDS011;69982;51.758;5.784;2023-09-30T14:45:56;9.50;;;2.30;;
80625;SDS011;69982;51.758;5.784;2023-09-30T14:48:24;8.00;;;1.80;;
80625;SDS011;69982;51.758;5.784;2023-09-30T14:50:51;8.60;;;2.30;;
80625;SDS011;69982;51.758;5.784;2023-09-30T14:53:19;7.70;;;1.50;;
80625;SDS011;69982;51.758;5.784;2023-09-30T14:55:47;10.90;;;2.10;;
80625;SDS011;69982;51.758;5.784;2023-09-30T15:00:43;7.60;;;1.50;;
80625;SDS011;69982;51.758;5.784;2023-09-30T15:03:11;9.70;;;2.30;;
80625;SDS011;69982;51.758;5.784;2023-09-30T15:05:38;8.50;;;1.80;;
80625;SDS011;69982;51.758;5.784;2023-09-30T15:08:06;7.00;;;1.70;;
80625;SDS011;69982;51.758;5.784;2023-09-30T15:10:34;8.10;;;1.90;;
80625;SDS011;69982;51.758;5.784;2023-09-30T15:13:03;6.00;;;1.70;;
80625;SDS011;69982;51.758;5.784;2023-09-30T15:15:36;7.50;;;1.90;;
80625;SDS011;69982;51.758;5.784;2023-09-30T15:18:04;5.90;;;2.00;;
80625;SDS011;69982;51.758;5.784;2023-09-30T15:20:37;8.20;;;2.00;;
80625;SDS011;69982;51.758;5.784;2023-09-30T15:23:06;10.40;;;2.30;;
80625;SDS011;69982;51.758;5.784;2023-09-30T15:28:07;11.20;;;2.60;;
80625;SDS011;69982;51.758;5.784;2023-09-30T15:30:36;9.50;;;2.10;;
80625;SDS011;69982;51.758;5.784;2023-09-30T15:33:04;9.40;;;2.60;;
80625;SDS011;69982;51.758;5.784;2023-09-30T15:35:32;9.60;;;2.30;;
80625;SDS011;69982;51.758;5.784;2023-09-30T15:38:00;7.20;;;1.70;;
80625;SDS011;69982;51.758;5.784;2023-09-30T15:42:55;9.80;;;2.20;;
80625;SDS011;69982;51.758;5.784;2023-09-30T15:45:23;8.50;;;2.40;;
80625;SDS011;69982;51.758;5.784;2023-09-30T15:47:52;6.90;;;2.20;;
80625;SDS011;69982;51.758;5.784;2023-09-30T15:50:20;7.60;;;1.80;;
80625;SDS011;69982;51.758;5.784;2023-09-30T15:52:49;8.20;;;2.40;;